Time;durP1;ratioP1;P1;durP2;ratioP2;P2;SDS_P1;SDS_P2;PMS_P1;PMS_P2;Temp;Humidity;BMP_temperature;BMP_pressure;BME280_temperature;BME280_humidity;BME280_pressure;Samples;Min_cycle;Max_cycle;Signal;HPM_P1;HPM_P2
2021/07/21 00:02:09;;;;;;;6.90;6.30;;;20.60;31.30;;;;;;10448793;28;20231;-72
2021/07/21 00:07:14;;;;;;;7.33;6.30;;;20.60;31.80;;;;;;10446141;28;20701;-72
2021/07/21 00:17:39;;;;;;;7.27;6.57;;;20.60;31.30;;;;;;10452085;28;20224;-73
2021/07/21 00:22:44;;;;;;;7.17;6.33;;;20.60;31.60;;;;;;10450685;28;20236;-72
2021/07/21 00:27:48;;;;;;;6.37;5.83;;;20.50;31.50;;;;;;10446690;28;20736;-76
2021/07/21 00:32:55;;;;;;;7.17;6.47;;;20.40;31.40;;;;;;10433980;28;20232;-76
2021/07/21 00:37:58;;;;;;;7.50;6.83;;;20.20;31.70;;;;;;10432515;28;20282;-76
2021/07/21 00:43:01;;;;;;;6.23;5.63;;;20.00;32.10;;;;;;10442199;28;20337;-76
2021/07/21 00:48:06;;;;;;;8.83;6.37;;;19.80;31.70;;;;;;10439254;28;20229;-76
2021/07/21 00:53:10;;;;;;;7.57;6.80;;;19.70;32.30;;;;;;10429067;28;20234;-76
2021/07/21 00:58:13;;;;;;;7.00;6.30;;;19.70;32.10;;;;;;10436682;28;20221;-76
2021/07/21 01:03:18;;;;;;;9.97;7.10;;;19.60;31.90;;;;;;10433769;28;20228;-76
2021/07/21 01:08:23;;;;;;;6.87;6.27;;;19.60;32.50;;;;;;10437957;28;20729;-76
2021/07/21 01:13:32;;;;;;;7.93;6.47;;;19.50;32.20;;;;;;10434868;28;20244;-75
2021/07/21 01:18:39;;;;;;;7.33;6.63;;;19.50;32.70;;;;;;10428664;28;20222;-75
2021/07/21 01:24:09;;;;;;;7.57;6.77;;;19.50;33.10;;;;;;10437786;28;20247;-76
2021/07/21 01:29:15;;;;;;;6.80;6.20;;;19.50;33.10;;;;;;10443144;28;20224;-72
2021/07/21 01:34:19;;;;;;;6.93;6.33;;;19.50;32.80;;;;;;10446658;28;21102;-72
2021/07/21 01:39:27;;;;;;;6.73;6.13;;;19.40;32.70;;;;;;10439565;28;20238;-73
2021/07/21 01:44:34;;;;;;;6.70;6.10;;;19.30;33.10;;;;;;10446549;28;20229;-72
2021/07/21 01:49:40;;;;;;;7.40;6.70;;;19.30;33.20;;;;;;10448265;28;20230;-72
2021/07/21 01:54:44;;;;;;;6.77;6.17;;;19.30;34.00;;;;;;10445306;28;20237;-67
2021/07/21 01:59:50;;;;;;;6.90;6.30;;;19.30;32.90;;;;;;10446729;28;20597;-67
2021/07/21 02:04:55;;;;;;;6.00;5.30;;;19.30;33.30;;;;;;10446465;28;20232;-67
2021/07/21 02:09:58;;;;;;;6.80;5.87;;;19.30;32.90;;;;;;10446532;28;20696;-67
2021/07/21 02:15:03;;;;;;;6.67;6.00;;;19.30;32.90;;;;;;10447223;28;20231;-67
2021/07/21 02:20:08;;;;;;;6.37;5.80;;;19.20;33.30;;;;;;10450086;28;20225;-67
2021/07/21 02:25:12;;;;;;;6.43;5.83;;;19.20;33.10;;;;;;10446309;28;20243;-67
2021/07/21 02:30:17;;;;;;;6.20;5.60;;;19.20;32.90;;;;;;10446284;28;20224;-67
2021/07/21 02:35:21;;;;;;;6.33;5.77;;;19.20;33.10;;;;;;10441322;28;20220;-67
2021/07/21 02:40:24;;;;;;;6.07;5.47;;;19.10;32.80;;;;;;10440084;28;20920;-72
2021/07/21 02:45:29;;;;;;;6.43;5.83;;;19.10;32.70;;;;;;10443590;28;20229;-72
2021/07/21 02:50:33;;;;;;;5.43;5.00;;;19.10;33.10;;;;;;10446832;28;20235;-68
2021/07/21 02:55:42;;;;;;;6.27;5.63;;;19.00;32.80;;;;;;10447576;28;20754;-67
2021/07/21 03:00:47;;;;;;;5.77;5.27;;;19.00;33.20;;;;;;10445640;28;20237;-67
2021/07/21 03:05:54;;;;;;;5.87;5.37;;;18.90;33.00;;;;;;10448418;28;20224;-67
2021/07/21 03:10:59;;;;;;;5.57;4.97;;;18.90;32.80;;;;;;10457027;28;20735;-67
2021/07/21 03:16:05;;;;;;;5.33;4.70;;;18.80;33.00;;;;;;10447692;28;20217;-67
2021/07/21 03:21:10;;;;;;;5.67;4.87;;;18.70;33.10;;;;;;10451575;28;20221;-67
2021/07/21 03:26:14;;;;;;;4.60;4.20;;;18.70;32.90;;;;;;10451406;28;20700;-67
2021/07/21 03:31:19;;;;;;;6.00;4.80;;;18.60;32.90;;;;;;10451857;28;20235;-67
2021/07/21 03:36:23;;;;;;;4.90;4.50;;;18.60;33.20;;;;;;10449854;28;20229;-67
2021/07/21 03:41:27;;;;;;;4.63;4.23;;;18.50;33.00;;;;;;10450921;28;20228;-70
2021/07/21 03:46:33;;;;;;;5.23;4.83;;;18.50;33.00;;;;;;10454103;28;20228;-70
2021/07/21 03:51:38;;;;;;;5.30;4.80;;;18.50;33.60;;;;;;10448106;28;20225;-70
2021/07/21 03:56:43;;;;;;;5.50;5.00;;;18.40;33.20;;;;;;10448793;28;20258;-70
2021/07/21 04:01:49;;;;;;;5.73;5.23;;;18.40;33.40;;;;;;10450155;28;20229;-70
2021/07/21 04:06:53;;;;;;;5.17;4.70;;;18.40;33.80;;;;;;10447390;28;20229;-70
2021/07/21 04:11:58;;;;;;;7.27;5.50;;;18.30;33.30;;;;;;10444552;28;20259;-70
2021/07/21 04:17:04;;;;;;;5.53;4.80;;;18.30;33.80;;;;;;10441886;28;20229;-67
2021/07/21 04:22:07;;;;;;;5.83;5.33;;;18.30;33.90;;;;;;10448109;28;20224;-68
2021/07/21 04:27:11;;;;;;;5.77;5.27;;;18.20;33.70;;;;;;10442670;28;20605;-67
2021/07/21 04:32:16;;;;;;;7.20;5.47;;;18.20;33.80;;;;;;10449662;28;20229;-68
2021/07/21 04:37:20;;;;;;;5.90;5.10;;;18.10;34.60;;;;;;10453684;28;20229;-67
2021/07/21 04:42:26;;;;;;;6.23;4.80;;;18.10;34.10;;;;;;10445948;28;20229;-67
2021/07/21 04:47:31;;;;;;;6.37;5.40;;;18.10;34.80;;;;;;10442166;28;20252;-75
2021/07/21 04:52:34;;;;;;;7.17;6.00;;;18.00;34.80;;;;;;10440109;28;20229;-75
2021/07/21 04:57:37;;;;;;;6.27;5.67;;;18.10;34.80;;;;;;10447591;28;20231;-75
2021/07/21 05:02:42;;;;;;;5.73;5.23;;;18.10;34.80;;;;;;10445847;28;20256;-75
2021/07/21 05:07:46;;;;;;;5.83;5.33;;;18.10;34.80;;;;;;10420185;28;20321;-75
2021/07/21 05:12:49;;;;;;;5.23;4.77;;;18.10;34.80;;;;;;10438577;28;20575;-74
2021/07/21 05:17:54;;;;;;;7.40;6.70;;;18.20;34.90;;;;;;10434083;28;20244;-74
2021/07/21 05:22:57;;;;;;;7.73;7.00;;;18.20;36.00;;;;;;10448438;28;20236;-75
2021/07/21 05:28:00;;;;;;;9.47;8.13;;;18.30;35.80;;;;;;10438249;28;20233;-74
2021/07/21 05:33:05;;;;;;;7.90;7.10;;;18.40;35.90;;;;;;10443250;28;20229;-74
2021/07/21 05:38:08;;;;;;;8.43;7.53;;;18.40;36.50;;;;;;10435290;28;20577;-75
2021/07/21 05:43:12;;;;;;;8.00;7.30;;;18.50;36.20;;;;;;10440583;28;20221;-74
2021/07/21 05:48:17;;;;;;;8.47;7.67;;;18.50;36.30;;;;;;10444523;28;20229;-70
2021/07/21 05:53:20;;;;;;;10.23;8.13;;;18.70;37.00;;;;;;10433179;28;20229;-70
2021/07/21 05:58:23;;;;;;;9.20;8.33;;;18.80;36.60;;;;;;10443643;28;20236;-70
2021/07/21 06:03:28;;;;;;;9.70;8.80;;;18.90;36.70;;;;;;10444166;28;20240;-70
2021/07/21 06:08:31;;;;;;;9.20;8.30;;;19.00;37.30;;;;;;10439761;28;20236;-70
2021/07/21 06:13:35;;;;;;;10.37;9.37;;;19.20;36.80;;;;;;10447299;28;20229;-72
2021/07/21 06:18:40;;;;;;;10.70;9.80;;;19.20;36.80;;;;;;10441444;28;20278;-72
2021/07/21 06:23:43;;;;;;;10.57;9.57;;;19.40;37.20;;;;;;10451898;28;20224;-70
2021/07/21 06:28:48;;;;;;;12.00;9.57;;;19.50;37.00;;;;;;10444137;28;20803;-70
2021/07/21 06:33:53;;;;;;;9.67;8.77;;;19.70;36.80;;;;;;10433924;28;20229;-72
2021/07/21 06:38:56;;;;;;;11.37;9.70;;;19.90;37.20;;;;;;10434597;28;20232;-73
2021/07/21 06:44:00;;;;;;;10.57;9.47;;;20.00;37.30;;;;;;10437100;28;20238;-73
2021/07/21 06:49:05;;;;;;;10.63;9.47;;;20.20;36.70;;;;;;10436482;28;20226;-73
2021/07/21 06:54:08;;;;;;;10.60;9.60;;;20.30;36.80;;;;;;10435986;28;20224;-75
2021/07/21 06:59:11;;;;;;;10.80;9.70;;;20.50;36.90;;;;;;10435348;28;20229;-76
2021/07/21 07:04:16;;;;;;;10.27;9.27;;;20.60;37.00;;;;;;10437738;28;20223;-76
2021/07/21 07:09:19;;;;;;;10.80;9.57;;;20.70;37.10;;;;;;10446506;28;20624;-70
2021/07/21 07:14:22;;;;;;;10.37;9.27;;;20.70;37.10;;;;;;10444024;28;20689;-70
2021/07/21 07:19:27;;;;;;;11.77;10.13;;;20.90;37.30;;;;;;10454781;28;20287;-70
2021/07/21 07:24:31;;;;;;;10.17;9.17;;;21.10;37.50;;;;;;10442317;28;20229;-70
2021/07/21 07:29:35;;;;;;;9.90;8.60;;;21.30;37.60;;;;;;10452623;28;20225;-70
2021/07/21 07:34:40;;;;;;;10.13;9.10;;;21.50;37.80;;;;;;10448038;28;20236;-70
2021/07/21 07:39:43;;;;;;;12.87;10.33;;;21.70;38.00;;;;;;10448530;28;20224;-70
2021/07/21 07:44:47;;;;;;;11.07;9.90;;;21.90;37.40;;;;;;10449706;28;20275;-70
2021/07/21 07:49:51;;;;;;;10.27;9.27;;;22.00;37.50;;;;;;10452025;28;20243;-70
2021/07/21 07:54:55;;;;;;;10.77;9.67;;;22.30;37.00;;;;;;10449626;28;20880;-67
2021/07/21 07:59:58;;;;;;;11.27;10.07;;;22.50;37.10;;;;;;10449311;28;20269;-67
2021/07/21 08:05:03;;;;;;;11.20;9.27;;;22.70;36.90;;;;;;10445976;28;20217;-68
2021/07/21 08:10:12;;;;;;;9.53;8.70;;;22.90;36.90;;;;;;10443418;28;20232;-76
2021/07/21 08:15:16;;;;;;;10.40;9.40;;;23.10;36.80;;;;;;10443166;28;20225;-77
2021/07/21 08:20:21;;;;;;;10.47;9.47;;;23.40;36.30;;;;;;10438611;28;20708;-76
2021/07/21 08:25:24;;;;;;;9.23;8.43;;;23.70;36.00;;;;;;10450282;28;20599;-77
2021/07/21 08:30:28;;;;;;;10.60;9.40;;;24.00;35.60;;;;;;10435987;28;20228;-76
2021/07/21 08:35:33;;;;;;;9.80;8.77;;;24.20;35.50;;;;;;10451182;28;20217;-77
2021/07/21 08:40:37;;;;;;;10.50;9.50;;;24.50;35.00;;;;;;10445359;28;20238;-77
2021/07/21 08:46:00;;;;;;;9.63;8.73;;;24.70;34.80;;;;;;10444243;28;20225;-70
2021/07/21 08:51:05;;;;;;;9.60;8.60;;;24.90;34.20;;;;;;10442158;28;20312;-70
2021/07/21 08:56:08;;;;;;;9.20;8.40;;;25.20;33.70;;;;;;10446390;28;20224;-71
2021/07/21 09:01:12;;;;;;;8.13;7.33;;;25.40;33.00;;;;;;10449626;28;20240;-70
2021/07/21 09:06:17;;;;;;;8.77;7.87;;;25.60;32.40;;;;;;10444799;28;20300;-71
2021/07/21 09:11:20;;;;;;;7.87;7.07;;;25.80;31.60;;;;;;10452216;28;20229;-71
2021/07/21 09:16:23;;;;;;;8.10;7.30;;;26.00;31.10;;;;;;10446077;28;20221;-70
2021/07/21 09:21:28;;;;;;;8.50;7.70;;;26.30;30.80;;;;;;10453969;28;20236;-71
2021/07/21 09:26:39;;;;;;;8.00;7.30;;;26.50;29.50;;;;;;10451351;28;20604;-70
2021/07/21 09:31:43;;;;;;;8.00;7.13;;;26.70;28.60;;;;;;10448439;28;20231;-70
2021/07/21 09:36:48;;;;;;;8.23;7.43;;;26.90;29.70;;;;;;10438951;28;20229;-71
2021/07/21 09:41:52;;;;;;;7.80;6.77;;;27.00;28.90;;;;;;10446202;28;20759;-71
2021/07/21 09:47:09;;;;;;;7.80;7.10;;;27.30;29.20;;;;;;10446281;28;20225;-73
2021/07/21 09:52:20;;;;;;;8.03;7.33;;;27.50;28.00;;;;;;10438745;28;20699;-73
2021/07/21 09:57:24;;;;;;;8.37;7.50;;;27.60;27.70;;;;;;10437051;28;20221;-73
2021/07/21 10:02:27;;;;;;;8.00;7.30;;;27.80;28.40;;;;;;10434355;28;20701;-73
2021/07/21 10:13:01;;;;;;;7.97;7.20;;;28.10;26.40;;;;;;10442243;28;20237;-73
2021/07/21 10:18:06;;;;;;;8.23;7.43;;;28.30;26.50;;;;;;10441531;28;20223;-73
2021/07/21 10:23:12;;;;;;;7.47;6.80;;;28.40;26.80;;;;;;10444325;28;20605;-73
2021/07/21 10:28:15;;;;;;;8.30;7.50;;;28.60;26.10;;;;;;10442954;28;20225;-73
2021/07/21 10:33:18;;;;;;;8.13;7.33;;;28.70;26.20;;;;;;10446172;28;20240;-72
2021/07/21 10:38:23;;;;;;;7.40;6.63;;;28.70;26.50;;;;;;10452917;28;20229;-73
2021/07/21 10:43:29;;;;;;;7.47;6.87;;;28.80;25.60;;;;;;10441862;28;20871;-73
2021/07/21 10:48:45;;;;;;;7.43;6.73;;;28.90;24.90;;;;;;10446516;28;20229;-73
2021/07/21 10:54:04;;;;;;;8.07;7.30;;;29.00;24.50;;;;;;10447022;28;20220;-77
2021/07/21 10:59:13;;;;;;;7.70;7.00;;;29.10;23.60;;;;;;10441604;28;20299;-77
2021/07/21 11:04:17;;;;;;;7.00;6.40;;;29.10;24.90;;;;;;10436615;28;20225;-76
2021/07/21 11:09:24;;;;;;;6.80;6.20;;;29.10;24.70;;;;;;10437013;28;20236;-77
2021/07/21 11:14:29;;;;;;;6.77;6.17;;;29.20;23.40;;;;;;10459895;28;20235;-77
2021/07/21 11:19:34;;;;;;;7.17;6.30;;;29.30;23.80;;;;;;10442024;28;20230;-67
2021/07/21 11:25:13;;;;;;;6.23;5.73;;;29.40;23.50;;;;;;10439523;28;20278;-67
2021/07/21 11:30:37;;;;;;;6.83;6.23;;;29.50;23.50;;;;;;10400231;28;21015;-67
2021/07/21 11:35:42;;;;;;;7.03;6.43;;;29.50;23.10;;;;;;10453077;28;20224;-67
2021/07/21 11:40:47;;;;;;;6.77;6.07;;;29.50;22.90;;;;;;10447701;28;20236;-67
2021/07/21 11:45:51;;;;;;;6.97;6.37;;;29.60;22.40;;;;;;10447903;28;20229;-67
2021/07/21 11:50:55;;;;;;;7.17;6.47;;;29.60;23.10;;;;;;10450665;28;20629;-67
2021/07/21 11:56:11;;;;;;;6.90;6.30;;;29.70;22.70;;;;;;10449693;28;20217;-67
2021/07/21 12:01:25;;;;;;;6.50;5.90;;;29.80;21.20;;;;;;10453767;28;20713;-67
2021/07/21 12:06:28;;;;;;;6.37;5.77;;;29.80;22.20;;;;;;10451326;28;20833;-67
2021/07/21 12:11:33;;;;;;;6.57;6.00;;;29.90;22.50;;;;;;10452956;28;20320;-67
2021/07/21 12:16:37;;;;;;;6.83;6.23;;;30.00;21.40;;;;;;10448815;28;20225;-68
2021/07/21 12:21:41;;;;;;;7.47;6.77;;;30.00;21.70;;;;;;10452284;28;20232;-68
2021/07/21 12:26:48;;;;;;;7.33;6.63;;;30.00;22.00;;;;;;10451800;28;20276;-67
2021/07/21 12:32:02;;;;;;;7.77;6.73;;;30.10;21.20;;;;;;10446101;28;20271;-67
2021/07/21 12:37:07;;;;;;;7.27;6.63;;;30.10;21.20;;;;;;10448630;28;20225;-67
2021/07/21 12:42:14;;;;;;;7.53;6.93;;;30.00;21.10;;;;;;10442904;28;20235;-68
2021/07/21 12:47:19;;;;;;;7.37;6.77;;;30.00;20.90;;;;;;10445179;28;20278;-74
2021/07/21 12:52:24;;;;;;;6.93;6.33;;;29.90;21.10;;;;;;10437107;28;20232;-70
2021/07/21 12:57:36;;;;;;;7.73;7.10;;;29.90;21.10;;;;;;10438600;28;20225;-70
2021/07/21 13:02:39;;;;;;;7.70;7.00;;;29.80;21.00;;;;;;10446064;28;20233;-71
2021/07/21 13:07:53;;;;;;;7.57;6.87;;;29.90;21.10;;;;;;10445022;28;20649;-70
2021/07/21 13:12:59;;;;;;;7.83;7.13;;;29.90;20.60;;;;;;10446386;28;20229;-70
2021/07/21 13:18:08;;;;;;;7.57;6.93;;;29.90;21.10;;;;;;10445337;28;20225;-72
2021/07/21 13:23:15;;;;;;;7.83;7.03;;;29.90;21.10;;;;;;10447803;28;20228;-73
2021/07/21 13:28:31;;;;;;;8.40;7.70;;;29.90;21.10;;;;;;10449638;28;20764;-73
2021/07/21 13:33:34;;;;;;;7.50;6.90;;;29.90;21.10;;;;;;10450612;28;20219;-73
2021/07/21 13:38:38;;;;;;;8.27;7.57;;;29.90;21.10;;;;;;10444718;28;20714;-73
2021/07/21 13:43:43;;;;;;;8.50;7.67;;;30.00;21.10;;;;;;10444301;28;20228;-73
2021/07/21 13:48:55;;;;;;;8.27;7.60;;;30.00;21.10;;;;;;10446500;28;20225;-73
2021/07/21 13:53:59;;;;;;;8.40;7.47;;;30.00;21.30;;;;;;10447136;28;20390;-73
2021/07/21 13:59:04;;;;;;;8.03;7.33;;;30.00;21.10;;;;;;10451542;28;20724;-73
2021/07/21 14:04:09;;;;;;;8.10;7.30;;;29.90;21.10;;;;;;10443843;28;20255;-72
2021/07/21 14:09:14;;;;;;;8.07;7.37;;;29.90;21.10;;;;;;10445150;28;20269;-67
2021/07/21 14:14:19;;;;;;;8.23;7.53;;;29.90;21.10;;;;;;10445536;28;20234;-68
2021/07/21 14:19:25;;;;;;;8.33;7.63;;;30.00;20.70;;;;;;10443748;28;20228;-68
2021/07/21 14:24:28;;;;;;;8.80;7.53;;;30.00;21.10;;;;;;10442961;28;20232;-68
2021/07/21 14:29:33;;;;;;;7.70;7.00;;;30.00;20.90;;;;;;10445397;28;20236;-68
2021/07/21 14:34:36;;;;;;;8.07;7.37;;;30.00;20.60;;;;;;10440247;28;20230;-68
2021/07/21 14:39:39;;;;;;;7.80;7.10;;;30.10;21.20;;;;;;10446488;28;20612;-68
2021/07/21 14:44:44;;;;;;;8.13;7.33;;;30.10;20.90;;;;;;10446094;28;20221;-68
2021/07/21 14:49:50;;;;;;;7.33;6.73;;;30.20;20.30;;;;;;10444896;28;20819;-73
2021/07/21 14:54:53;;;;;;;8.00;7.30;;;30.20;20.60;;;;;;10446260;28;20222;-67
2021/07/21 14:59:58;;;;;;;6.97;6.30;;;30.30;20.70;;;;;;10444565;28;20235;-68
2021/07/21 15:05:01;;;;;;;7.43;6.83;;;30.40;20.30;;;;;;10455033;28;20770;-68
2021/07/21 15:10:06;;;;;;;8.30;7.60;;;30.40;20.30;;;;;;10454413;28;20224;-68
2021/07/21 15:15:12;;;;;;;7.90;7.10;;;30.50;20.10;;;;;;10453420;28;20216;-68
2021/07/21 15:20:16;;;;;;;7.53;6.87;;;30.60;19.50;;;;;;10442452;28;20235;-73
2021/07/21 15:25:20;;;;;;;8.10;7.30;;;30.60;19.90;;;;;;10445684;28;20779;-73
2021/07/21 15:30:24;;;;;;;7.93;7.33;;;30.60;19.80;;;;;;10452934;28;20870;-71
2021/07/21 15:35:28;;;;;;;7.97;7.27;;;30.60;19.60;;;;;;10441868;28;20604;-78
2021/07/21 15:40:31;;;;;;;8.00;7.30;;;30.60;19.90;;;;;;10436374;28;20610;-78
2021/07/21 15:45:39;;;;;;;7.87;7.07;;;30.70;19.90;;;;;;10443295;28;20229;-71
2021/07/21 15:50:42;;;;;;;8.40;7.70;;;30.70;19.80;;;;;;10448659;28;20233;-68
2021/07/21 15:55:46;;;;;;;7.63;7.03;;;30.70;20.00;;;;;;10450501;28;20232;-71
2021/07/21 16:00:51;;;;;;;8.07;7.27;;;30.70;19.90;;;;;;10441573;28;20229;-71
2021/07/21 16:05:54;;;;;;;8.63;7.83;;;30.70;19.70;;;;;;10453901;28;20301;-79
2021/07/21 16:10:59;;;;;;;7.93;7.23;;;30.70;19.90;;;;;;10457491;28;20228;-71
2021/07/21 16:16:04;;;;;;;8.40;7.23;;;30.70;19.80;;;;;;10447072;28;20220;-68
2021/07/21 16:21:08;;;;;;;8.03;7.27;;;30.70;19.60;;;;;;10439954;28;20710;-78
2021/07/21 16:26:11;;;;;;;7.33;6.73;;;30.70;19.30;;;;;;10436786;28;20221;-80
2021/07/21 16:31:16;;;;;;;8.00;7.17;;;30.70;19.50;;;;;;10431085;28;20221;-69
2021/07/21 16:36:19;;;;;;;8.10;7.40;;;30.70;19.40;;;;;;10453073;28;20696;-80
2021/07/21 16:41:22;;;;;;;7.87;7.10;;;30.60;19.30;;;;;;10443016;28;20225;-78
2021/07/21 16:46:27;;;;;;;8.17;7.43;;;30.60;19.60;;;;;;10451064;28;20229;-69
2021/07/21 16:51:30;;;;;;;8.30;7.60;;;30.60;19.10;;;;;;10452399;28;20232;-71
2021/07/21 16:56:34;;;;;;;7.73;7.03;;;30.60;19.50;;;;;;10446946;28;20219;-71
2021/07/21 17:01:38;;;;;;;8.10;7.30;;;30.70;19.70;;;;;;10444896;28;20233;-71
2021/07/21 17:06:42;;;;;;;8.00;7.20;;;30.70;19.40;;;;;;10444896;28;20224;-71
2021/07/21 17:11:46;;;;;;;7.93;7.07;;;30.70;19.70;;;;;;10444190;28;20232;-69
2021/07/21 17:16:51;;;;;;;7.40;6.70;;;30.70;19.80;;;;;;10448845;28;20224;-75
2021/07/21 17:21:57;;;;;;;8.27;7.40;;;30.60;19.70;;;;;;10445828;28;20648;-75
2021/07/21 17:27:01;;;;;;;8.10;7.40;;;30.60;20.20;;;;;;10442694;28;20225;-74
2021/07/21 17:32:06;;;;;;;7.77;6.97;;;30.50;20.10;;;;;;10448022;28;20229;-74
2021/07/21 17:37:09;;;;;;;7.33;6.63;;;30.40;20.20;;;;;;10447020;28;20244;-74
2021/07/21 17:42:12;;;;;;;7.60;7.00;;;30.30;20.00;;;;;;10440597;28;20221;-71
2021/07/21 17:47:18;;;;;;;7.40;6.80;;;30.20;20.10;;;;;;10449295;28;20260;-71
2021/07/21 17:52:21;;;;;;;7.27;6.67;;;30.00;20.30;;;;;;10445606;28;20239;-71
2021/07/21 17:57:25;;;;;;;7.30;6.60;;;29.90;20.50;;;;;;10446352;28;20240;-71
2021/07/21 18:02:29;;;;;;;7.60;6.90;;;29.90;20.70;;;;;;10445146;28;20231;-78
2021/07/21 18:07:32;;;;;;;8.13;7.43;;;29.80;21.00;;;;;;10445975;28;20751;-74
2021/07/21 18:12:36;;;;;;;7.53;6.93;;;29.80;21.30;;;;;;10442422;28;20229;-74
2021/07/21 18:17:41;;;;;;;7.90;7.20;;;29.70;21.80;;;;;;10440723;28;20221;-74
2021/07/21 18:22:46;;;;;;;7.60;6.90;;;29.60;22.10;;;;;;10447638;28;20623;-74
2021/07/21 18:27:49;;;;;;;7.77;7.07;;;29.50;22.00;;;;;;10443521;28;20607;-74
2021/07/21 18:32:54;;;;;;;7.53;6.83;;;29.30;21.60;;;;;;10422389;28;20226;-79
2021/07/21 18:37:57;;;;;;;7.67;7.00;;;29.10;22.30;;;;;;10435717;28;20778;-79
2021/07/21 18:43:00;;;;;;;7.57;6.93;;;29.00;22.50;;;;;;10430052;28;20238;-79
2021/07/21 18:48:05;;;;;;;7.67;6.97;;;28.80;22.70;;;;;;10438559;28;20719;-79
2021/07/21 18:53:08;;;;;;;7.40;6.80;;;28.70;23.10;;;;;;10434322;28;20224;-76
2021/07/21 18:58:12;;;;;;;7.97;7.20;;;28.60;23.30;;;;;;10433553;28;20312;-76
2021/07/21 19:03:17;;;;;;;7.73;7.03;;;28.50;23.50;;;;;;10425276;28;20232;-77
2021/07/21 19:08:20;;;;;;;8.30;7.50;;;28.30;23.70;;;;;;10427093;28;20223;-76
2021/07/21 19:13:24;;;;;;;8.30;7.33;;;28.20;23.50;;;;;;10423153;28;20660;-77
2021/07/21 19:18:35;;;;;;;7.87;7.17;;;28.00;23.70;;;;;;10428584;28;20243;-76
2021/07/21 19:23:38;;;;;;;7.20;6.60;;;27.80;23.80;;;;;;10431876;28;20641;-76
2021/07/21 19:28:42;;;;;;;7.57;6.97;;;27.70;23.80;;;;;;10433671;28;20599;-77
2021/07/21 19:33:46;;;;;;;7.60;6.80;;;27.60;24.50;;;;;;10435032;28;21269;-76
2021/07/21 19:38:49;;;;;;;7.67;6.97;;;27.50;24.90;;;;;;10436459;28;20597;-77
2021/07/21 19:43:53;;;;;;;8.40;7.67;;;27.30;24.70;;;;;;10433662;28;20222;-75
2021/07/21 19:48:58;;;;;;;7.97;7.27;;;27.10;24.70;;;;;;10438292;28;20221;-76
2021/07/21 19:54:01;;;;;;;8.07;7.03;;;27.00;25.30;;;;;;10436613;28;20229;-76
2021/07/21 19:59:04;;;;;;;8.53;6.43;;;26.80;25.00;;;;;;10434732;28;20217;-76
2021/07/21 20:04:09;;;;;;;7.43;6.73;;;26.60;25.20;;;;;;10432636;28;20639;-76
2021/07/21 20:09:13;;;;;;;8.50;7.30;;;26.40;25.70;;;;;;10428169;28;20721;-77
2021/07/21 20:14:16;;;;;;;7.07;6.37;;;26.30;25.40;;;;;;10438167;28;20256;-77
2021/07/21 20:19:22;;;;;;;7.50;6.80;;;26.10;25.50;;;;;;10427986;28;20221;-76
2021/07/21 20:24:25;;;;;;;7.57;6.83;;;26.00;26.10;;;;;;10441793;28;20618;-76
2021/07/21 20:29:28;;;;;;;7.53;6.83;;;25.90;26.00;;;;;;10429548;28;20222;-76
2021/07/21 20:34:33;;;;;;;7.00;6.40;;;25.80;26.30;;;;;;10433286;28;20230;-76
2021/07/21 20:39:36;;;;;;;9.03;7.30;;;25.60;26.60;;;;;;10443405;28;20236;-77
2021/07/21 20:44:40;;;;;;;8.10;7.30;;;25.50;26.40;;;;;;10451961;28;20233;-77
2021/07/21 20:49:45;;;;;;;7.13;6.53;;;25.40;26.60;;;;;;10442401;28;20232;-77
2021/07/21 20:54:49;;;;;;;6.97;6.30;;;25.30;26.80;;;;;;10446517;28;20782;-77
2021/07/21 20:59:52;;;;;;;7.67;6.97;;;25.20;26.90;;;;;;10450623;28;20233;-77
2021/07/21 21:04:57;;;;;;;8.20;7.37;;;25.10;26.90;;;;;;10444640;28;20234;-78
2021/07/21 21:10:00;;;;;;;8.07;7.27;;;25.00;27.20;;;;;;10433086;28;20226;-77
2021/07/21 21:15:04;;;;;;;7.80;7.00;;;24.80;27.20;;;;;;10447215;28;20248;-76
2021/07/21 21:20:11;;;;;;;8.27;7.47;;;24.70;27.30;;;;;;10445798;28;20236;-76
2021/07/21 21:25:24;;;;;;;8.73;7.93;;;24.60;28.40;;;;;;10494195;27;20572;-75
2021/07/21 21:30:27;;;;;;;8.17;7.47;;;24.50;28.20;;;;;;10484166;28;20240;-75
2021/07/21 21:35:30;;;;;;;8.27;7.57;;;24.30;27.60;;;;;;10485503;28;20714;-75
2021/07/21 21:40:35;;;;;;;7.93;7.13;;;24.10;28.10;;;;;;10443281;28;20286;-75
2021/07/21 21:45:38;;;;;;;7.63;6.80;;;24.00;28.00;;;;;;10468864;28;20232;-75
2021/07/21 21:50:42;;;;;;;7.87;7.17;;;23.90;27.90;;;;;;10484333;28;20663;-75
2021/07/21 21:55:46;;;;;;;8.17;7.47;;;23.70;27.80;;;;;;10484223;28;20235;-75
2021/07/21 22:00:49;;;;;;;8.70;7.87;;;23.40;28.60;;;;;;10484155;28;20232;-75
2021/07/21 22:05:53;;;;;;;9.43;7.80;;;23.10;28.50;;;;;;10483762;28;20232;-75
2021/07/21 22:10:57;;;;;;;9.20;8.20;;;22.80;28.60;;;;;;10484070;28;20232;-75
2021/07/21 22:16:00;;;;;;;8.47;7.67;;;22.60;29.40;;;;;;10483183;28;20234;-75
2021/07/21 22:21:04;;;;;;;8.87;7.97;;;22.50;29.10;;;;;;10482487;28;20224;-75
2021/07/21 22:26:09;;;;;;;8.37;6.93;;;22.30;29.20;;;;;;10482792;28;20229;-75
2021/07/21 22:31:15;;;;;;;9.57;8.57;;;22.20;29.60;;;;;;10482604;28;20228;-75
2021/07/21 22:36:22;;;;;;;8.30;7.50;;;22.20;30.00;;;;;;10457269;28;20232;-75
2021/07/21 22:41:26;;;;;;;8.80;8.00;;;22.00;30.20;;;;;;10454932;28;20236;-73
2021/07/21 22:46:29;;;;;;;8.60;7.60;;;21.90;30.20;;;;;;10454876;28;20235;-74
2021/07/21 22:51:33;;;;;;;7.23;6.60;;;21.80;30.00;;;;;;10454835;28;20240;-75
2021/07/21 22:56:38;;;;;;;8.30;7.50;;;21.80;30.00;;;;;;10454366;28;20708;-75
2021/07/21 23:02:03;;;;;;;7.13;6.20;;;21.80;30.70;;;;;;10454316;28;20233;-75
2021/07/21 23:07:44;;;;;;;7.60;6.90;;;21.80;30.70;;;;;;10453715;28;20598;-75
2021/07/21 23:13:24;;;;;;;9.73;7.80;;;21.90;30.80;;;;;;10453697;28;20241;-75
2021/07/21 23:18:29;;;;;;;8.70;7.90;;;21.90;30.80;;;;;;10453633;28;20266;-75
2021/07/21 23:23:33;;;;;;;8.87;8.03;;;21.90;30.50;;;;;;10453028;28;20229;-75
2021/07/21 23:28:38;;;;;;;8.40;7.60;;;21.90;30.50;;;;;;10453360;28;20278;-75
2021/07/21 23:33:44;;;;;;;8.40;7.60;;;21.90;30.50;;;;;;10452765;28;20233;-75
2021/07/21 23:38:47;;;;;;;8.60;7.80;;;21.90;30.90;;;;;;10452718;28;20233;-75
2021/07/21 23:43:50;;;;;;;8.10;7.40;;;21.80;30.20;;;;;;10450666;28;20273;-75
2021/07/21 23:48:55;;;;;;;8.60;7.67;;;21.70;30.30;;;;;;10449111;28;20579;-75
2021/07/21 23:53:58;;;;;;;7.87;7.07;;;21.50;31.10;;;;;;10451815;28;20233;-75
2021/07/21 23:59:01;;;;;;;8.13;6.93;;;21.50;30.60;;;;;;10451651;28;20224;-75
